sensor_id;sensor_type;location;lat;lon;timestamp;temperature;humidity
7998;DHT22;4044;49.814;7.828;2023-02-28T00:02:17;0.00;76.30
7998;DHT22;4044;49.814;7.828;2023-02-28T00:04:43;0.00;76.40
7998;DHT22;4044;49.814;7.828;2023-02-28T00:07:09;-0.10;76.30
7998;DHT22;4044;49.814;7.828;2023-02-28T00:09:35;-0.10;76.50
7998;DHT22;4044;49.814;7.828;2023-02-28T00:12:00;-0.10;76.40
7998;DHT22;4044;49.814;7.828;2023-02-28T00:14:35;-0.20;76.60
7998;DHT22;4044;49.814;7.828;2023-02-28T00:17:01;-0.20;76.10
7998;DHT22;4044;49.814;7.828;2023-02-28T00:19:26;-0.20;76.30
7998;DHT22;4044;49.814;7.828;2023-02-28T00:21:52;-0.30;76.60
7998;DHT22;4044;49.814;7.828;2023-02-28T00:24:17;-0.30;76.40
7998;DHT22;4044;49.814;7.828;2023-02-28T00:26:43;-0.30;76.70
7998;DHT22;4044;49.814;7.828;2023-02-28T00:29:08;-0.30;77.50
7998;DHT22;4044;49.814;7.828;2023-02-28T00:31:34;-0.30;77.60
7998;DHT22;4044;49.814;7.828;2023-02-28T00:34:00;-0.40;78.20
7998;DHT22;4044;49.814;7.828;2023-02-28T00:36:25;-0.30;77.80
7998;DHT22;4044;49.814;7.828;2023-02-28T00:38:51;-0.30;78.30
7998;DHT22;4044;49.814;7.828;2023-02-28T00:41:17;-0.30;78.20
7998;DHT22;4044;49.814;7.828;2023-02-28T00:43:42;-0.30;78.20
7998;DHT22;4044;49.814;7.828;2023-02-28T00:46:08;-0.40;77.80
7998;DHT22;4044;49.814;7.828;2023-02-28T00:48:33;-0.30;78.20
7998;DHT22;4044;49.814;7.828;2023-02-28T00:50:59;-0.40;78.90
7998;DHT22;4044;49.814;7.828;2023-02-28T00:53:25;-0.50;78.50
7998;DHT22;4044;49.814;7.828;2023-02-28T00:55:50;-0.40;78.40
7998;DHT22;4044;49.814;7.828;2023-02-28T00:58:16;-0.50;78.00
7998;DHT22;4044;49.814;7.828;2023-02-28T01:00:42;-0.50;78.30
7998;DHT22;4044;49.814;7.828;2023-02-28T01:03:07;-0.50;78.40
7998;DHT22;4044;49.814;7.828;2023-02-28T01:05:33;-0.50;78.20
7998;DHT22;4044;49.814;7.828;2023-02-28T01:07:58;-0.50;77.70
7998;DHT22;4044;49.814;7.828;2023-02-28T01:10:25;-0.40;79.20
7998;DHT22;4044;49.814;7.828;2023-02-28T01:12:50;-0.50;78.20
7998;DHT22;4044;49.814;7.828;2023-02-28T01:15:16;-0.60;78.40
7998;DHT22;4044;49.814;7.828;2023-02-28T01:17:42;-0.60;79.00
7998;DHT22;4044;49.814;7.828;2023-02-28T01:20:08;-0.60;79.20
7998;DHT22;4044;49.814;7.828;2023-02-28T01:22:34;-0.60;79.40
7998;DHT22;4044;49.814;7.828;2023-02-28T01:25:00;-0.60;79.40
7998;DHT22;4044;49.814;7.828;2023-02-28T01:27:25;-0.60;79.60
7998;DHT22;4044;49.814;7.828;2023-02-28T01:29:51;-0.50;80.40
7998;DHT22;4044;49.814;7.828;2023-02-28T01:32:17;-0.60;79.30
7998;DHT22;4044;49.814;7.828;2023-02-28T01:34:42;-0.60;79.10
7998;DHT22;4044;49.814;7.828;2023-02-28T01:37:08;-0.60;79.10
7998;DHT22;4044;49.814;7.828;2023-02-28T01:39:33;-0.60;79.40
7998;DHT22;4044;49.814;7.828;2023-02-28T01:41:59;-0.70;80.10
7998;DHT22;4044;49.814;7.828;2023-02-28T01:47:35;-0.80;79.60
7998;DHT22;4044;49.814;7.828;2023-02-28T01:50:04;-0.90;79.30
7998;DHT22;4044;49.814;7.828;2023-02-28T01:52:31;-0.90;79.50
7998;DHT22;4044;49.814;7.828;2023-02-28T01:54:59;-0.90;79.40
7998;DHT22;4044;49.814;7.828;2023-02-28T01:57:30;-1.00;80.30
7998;DHT22;4044;49.814;7.828;2023-02-28T02:00:06;-1.00;79.60
7998;DHT22;4044;49.814;7.828;2023-02-28T02:02:34;-1.10;80.20
7998;DHT22;4044;49.814;7.828;2023-02-28T02:05:10;-1.10;81.00
7998;DHT22;4044;49.814;7.828;2023-02-28T02:07:39;-1.20;81.50
7998;DHT22;4044;49.814;7.828;2023-02-28T02:10:17;-1.20;81.80
7998;DHT22;4044;49.814;7.828;2023-02-28T02:13:05;-1.30;81.90
7998;DHT22;4044;49.814;7.828;2023-02-28T02:18:57;-1.30;80.60
7998;DHT22;4044;49.814;7.828;2023-02-28T02:32:28;-1.40;81.80
7998;DHT22;4044;49.814;7.828;2023-02-28T02:37:52;-1.50;83.80
7998;DHT22;4044;49.814;7.828;2023-02-28T02:40:47;-1.40;83.70
7998;DHT22;4044;49.814;7.828;2023-02-28T02:43:19;-1.50;83.50
7998;DHT22;4044;49.814;7.828;2023-02-28T02:45:51;-1.50;83.70
7998;DHT22;4044;49.814;7.828;2023-02-28T02:48:20;-1.50;83.80
7998;DHT22;4044;49.814;7.828;2023-02-28T02:50:54;-1.50;83.50
7998;DHT22;4044;49.814;7.828;2023-02-28T02:56:12;-1.60;83.50
7998;DHT22;4044;49.814;7.828;2023-02-28T02:58:42;-1.60;84.70
7998;DHT22;4044;49.814;7.828;2023-02-28T03:01:12;-1.60;84.00
7998;DHT22;4044;49.814;7.828;2023-02-28T03:03:39;-1.50;84.40
7998;DHT22;4044;49.814;7.828;2023-02-28T03:06:05;-1.50;84.90
7998;DHT22;4044;49.814;7.828;2023-02-28T03:08:35;-1.50;83.80
7998;DHT22;4044;49.814;7.828;2023-02-28T03:11:03;-1.60;85.30
7998;DHT22;4044;49.814;7.828;2023-02-28T03:21:46;-1.60;85.80
7998;DHT22;4044;49.814;7.828;2023-02-28T03:24:35;-1.70;85.90
7998;DHT22;4044;49.814;7.828;2023-02-28T03:27:11;-1.70;86.00
7998;DHT22;4044;49.814;7.828;2023-02-28T03:29:47;-1.70;85.20
7998;DHT22;4044;49.814;7.828;2023-02-28T03:32:30;-1.60;85.70
7998;DHT22;4044;49.814;7.828;2023-02-28T03:35:04;-1.70;87.50
7998;DHT22;4044;49.814;7.828;2023-02-28T03:37:33;-1.70;87.60
7998;DHT22;4044;49.814;7.828;2023-02-28T03:40:28;-1.70;86.90
7998;DHT22;4044;49.814;7.828;2023-02-28T03:43:00;-1.70;87.40
7998;DHT22;4044;49.814;7.828;2023-02-28T03:45:30;-1.70;85.20
7998;DHT22;4044;49.814;7.828;2023-02-28T03:50:37;-1.70;86.10
7998;DHT22;4044;49.814;7.828;2023-02-28T03:53:29;-1.80;88.20
7998;DHT22;4044;49.814;7.828;2023-02-28T03:56:27;-1.70;88.00
7998;DHT22;4044;49.814;7.828;2023-02-28T03:59:13;-1.70;88.50
7998;DHT22;4044;49.814;7.828;2023-02-28T04:01:42;-1.70;89.30
7998;DHT22;4044;49.814;7.828;2023-02-28T04:04:09;-1.70;88.80
7998;DHT22;4044;49.814;7.828;2023-02-28T04:06:35;-1.70;89.30
7998;DHT22;4044;49.814;7.828;2023-02-28T04:09:02;-1.70;88.50
7998;DHT22;4044;49.814;7.828;2023-02-28T04:11:33;-1.60;88.90
7998;DHT22;4044;49.814;7.828;2023-02-28T04:14:00;-1.60;89.30
7998;DHT22;4044;49.814;7.828;2023-02-28T04:16:26;-1.60;88.20
7998;DHT22;4044;49.814;7.828;2023-02-28T04:18:51;-1.60;88.90
7998;DHT22;4044;49.814;7.828;2023-02-28T04:21:17;-1.70;89.30
7998;DHT22;4044;49.814;7.828;2023-02-28T04:23:46;-1.70;89.30
7998;DHT22;4044;49.814;7.828;2023-02-28T04:26:11;-1.70;89.10
7998;DHT22;4044;49.814;7.828;2023-02-28T04:28:38;-1.70;89.00
7998;DHT22;4044;49.814;7.828;2023-02-28T04:31:04;-1.60;89.10
7998;DHT22;4044;49.814;7.828;2023-02-28T04:33:32;-1.60;89.30
7998;DHT22;4044;49.814;7.828;2023-02-28T04:36:02;-1.60;88.60
7998;DHT22;4044;49.814;7.828;2023-02-28T04:38:29;-1.60;89.10
7998;DHT22;4044;49.814;7.828;2023-02-28T04:40:57;-1.50;88.50
7998;DHT22;4044;49.814;7.828;2023-02-28T04:43:22;-1.50;88.60
7998;DHT22;4044;49.814;7.828;2023-02-28T04:45:48;-1.60;88.20
7998;DHT22;4044;49.814;7.828;2023-02-28T04:48:13;-1.60;87.50
7998;DHT22;4044;49.814;7.828;2023-02-28T04:50:39;-1.60;87.50
7998;DHT22;4044;49.814;7.828;2023-02-28T04:53:04;-1.70;87.30
7998;DHT22;4044;49.814;7.828;2023-02-28T04:55:30;-1.80;86.70
7998;DHT22;4044;49.814;7.828;2023-02-28T04:57:55;-1.80;86.40
7998;DHT22;4044;49.814;7.828;2023-02-28T05:00:21;-1.90;88.20
7998;DHT22;4044;49.814;7.828;2023-02-28T05:02:46;-1.90;87.20
7998;DHT22;4044;49.814;7.828;2023-02-28T05:05:12;-1.90;87.80
7998;DHT22;4044;49.814;7.828;2023-02-28T05:07:43;-1.90;87.10
7998;DHT22;4044;49.814;7.828;2023-02-28T05:10:09;-2.00;89.10
7998;DHT22;4044;49.814;7.828;2023-02-28T05:12:35;-2.00;88.90
7998;DHT22;4044;49.814;7.828;2023-02-28T05:15:01;-2.10;89.30
7998;DHT22;4044;49.814;7.828;2023-02-28T05:17:27;-2.10;89.90
7998;DHT22;4044;49.814;7.828;2023-02-28T05:19:53;-2.10;89.00
7998;DHT22;4044;49.814;7.828;2023-02-28T05:22:18;-2.20;89.10
7998;DHT22;4044;49.814;7.828;2023-02-28T05:24:44;-2.20;90.00
7998;DHT22;4044;49.814;7.828;2023-02-28T05:27:10;-2.20;88.60
7998;DHT22;4044;49.814;7.828;2023-02-28T05:29:36;-2.30;89.70
7998;DHT22;4044;49.814;7.828;2023-02-28T05:32:08;-2.30;90.00
7998;DHT22;4044;49.814;7.828;2023-02-28T05:34:34;-2.30;90.10
7998;DHT22;4044;49.814;7.828;2023-02-28T05:36:59;-2.40;89.50
7998;DHT22;4044;49.814;7.828;2023-02-28T05:39:25;-2.40;89.90
7998;DHT22;4044;49.814;7.828;2023-02-28T05:41:50;-2.50;88.70
7998;DHT22;4044;49.814;7.828;2023-02-28T05:44:16;-2.40;87.30
7998;DHT22;4044;49.814;7.828;2023-02-28T05:46:41;-2.50;88.60
7998;DHT22;4044;49.814;7.828;2023-02-28T05:49:07;-2.50;88.90
7998;DHT22;4044;49.814;7.828;2023-02-28T05:51:32;-2.50;89.60
7998;DHT22;4044;49.814;7.828;2023-02-28T05:54:00;-2.60;90.00
7998;DHT22;4044;49.814;7.828;2023-02-28T05:56:26;-2.60;90.30
7998;DHT22;4044;49.814;7.828;2023-02-28T05:58:51;-2.60;89.60
7998;DHT22;4044;49.814;7.828;2023-02-28T06:01:43;-2.60;87.90
7998;DHT22;4044;49.814;7.828;2023-02-28T06:04:13;-2.60;88.40
7998;DHT22;4044;49.814;7.828;2023-02-28T06:06:43;-2.70;88.70
7998;DHT22;4044;49.814;7.828;2023-02-28T06:09:08;-2.80;90.10
7998;DHT22;4044;49.814;7.828;2023-02-28T06:11:34;-2.80;90.00
7998;DHT22;4044;49.814;7.828;2023-02-28T06:14:00;-2.80;90.00
7998;DHT22;4044;49.814;7.828;2023-02-28T06:16:28;-2.80;90.00
7998;DHT22;4044;49.814;7.828;2023-02-28T06:18:54;-2.80;89.80
7998;DHT22;4044;49.814;7.828;2023-02-28T06:21:23;-2.80;88.10
7998;DHT22;4044;49.814;7.828;2023-02-28T06:23:49;-2.80;89.60
7998;DHT22;4044;49.814;7.828;2023-02-28T06:26:15;-2.80;89.60
7998;DHT22;4044;49.814;7.828;2023-02-28T06:28:40;-2.80;88.60
7998;DHT22;4044;49.814;7.828;2023-02-28T06:31:10;-2.80;89.40
7998;DHT22;4044;49.814;7.828;2023-02-28T06:33:36;-2.80;90.10
7998;DHT22;4044;49.814;7.828;2023-02-28T06:36:03;-2.80;88.80
7998;DHT22;4044;49.814;7.828;2023-02-28T06:38:28;-2.80;90.20
7998;DHT22;4044;49.814;7.828;2023-02-28T06:40:55;-2.70;90.00
7998;DHT22;4044;49.814;7.828;2023-02-28T06:43:21;-2.60;88.30
7998;DHT22;4044;49.814;7.828;2023-02-28T06:45:47;-2.60;88.50
7998;DHT22;4044;49.814;7.828;2023-02-28T06:48:13;-2.40;87.90
7998;DHT22;4044;49.814;7.828;2023-02-28T06:50:38;-2.60;88.40
7998;DHT22;4044;49.814;7.828;2023-02-28T06:53:04;-2.50;88.70
7998;DHT22;4044;49.814;7.828;2023-02-28T06:55:30;-2.60;89.80
7998;DHT22;4044;49.814;7.828;2023-02-28T06:57:55;-2.50;89.40
7998;DHT22;4044;49.814;7.828;2023-02-28T07:00:21;-2.40;88.50
7998;DHT22;4044;49.814;7.828;2023-02-28T07:02:47;-2.40;89.40
7998;DHT22;4044;49.814;7.828;2023-02-28T07:05:12;-2.50;89.30
7998;DHT22;4044;49.814;7.828;2023-02-28T07:07:38;-2.20;89.40
7998;DHT22;4044;49.814;7.828;2023-02-28T07:10:11;-2.00;89.10
7998;DHT22;4044;49.814;7.828;2023-02-28T07:12:37;-1.80;87.90
7998;DHT22;4044;49.814;7.828;2023-02-28T07:15:04;-1.50;87.00
7998;DHT22;4044;49.814;7.828;2023-02-28T07:17:30;-1.20;86.60
7998;DHT22;4044;49.814;7.828;2023-02-28T07:19:56;-1.00;86.10
7998;DHT22;4044;49.814;7.828;2023-02-28T07:22:21;-0.70;84.80
7998;DHT22;4044;49.814;7.828;2023-02-28T07:24:47;-0.50;84.70
7998;DHT22;4044;49.814;7.828;2023-02-28T07:27:12;-0.40;84.20
7998;DHT22;4044;49.814;7.828;2023-02-28T07:29:51;-0.30;83.70
7998;DHT22;4044;49.814;7.828;2023-02-28T07:32:17;-0.20;83.40
7998;DHT22;4044;49.814;7.828;2023-02-28T07:34:44;0.00;82.90
7998;DHT22;4044;49.814;7.828;2023-02-28T07:37:09;0.00;82.50
7998;DHT22;4044;49.814;7.828;2023-02-28T07:39:35;0.20;82.20
7998;DHT22;4044;49.814;7.828;2023-02-28T07:42:04;0.30;81.40
7998;DHT22;4044;49.814;7.828;2023-02-28T07:44:29;0.30;81.20
7998;DHT22;4044;49.814;7.828;2023-02-28T07:46:55;0.40;80.50
7998;DHT22;4044;49.814;7.828;2023-02-28T07:49:20;0.40;80.70
7998;DHT22;4044;49.814;7.828;2023-02-28T07:51:46;0.40;79.80
7998;DHT22;4044;49.814;7.828;2023-02-28T07:54:11;0.40;80.50
7998;DHT22;4044;49.814;7.828;2023-02-28T07:56:37;0.40;80.80
7998;DHT22;4044;49.814;7.828;2023-02-28T07:59:02;0.50;80.30
7998;DHT22;4044;49.814;7.828;2023-02-28T08:01:28;0.50;79.90
7998;DHT22;4044;49.814;7.828;2023-02-28T08:03:54;0.50;80.20
7998;DHT22;4044;49.814;7.828;2023-02-28T08:06:23;0.70;80.00
7998;DHT22;4044;49.814;7.828;2023-02-28T08:08:49;0.70;78.80
7998;DHT22;4044;49.814;7.828;2023-02-28T08:11:15;0.70;79.20
7998;DHT22;4044;49.814;7.828;2023-02-28T08:13:42;0.80;78.80
7998;DHT22;4044;49.814;7.828;2023-02-28T08:16:10;0.90;78.60
7998;DHT22;4044;49.814;7.828;2023-02-28T08:18:35;1.00;77.60
7998;DHT22;4044;49.814;7.828;2023-02-28T08:21:09;1.10;77.20
7998;DHT22;4044;49.814;7.828;2023-02-28T08:23:35;1.20;76.90
7998;DHT22;4044;49.814;7.828;2023-02-28T08:26:00;1.20;76.10
7998;DHT22;4044;49.814;7.828;2023-02-28T08:28:26;1.30;76.20
7998;DHT22;4044;49.814;7.828;2023-02-28T08:30:51;1.40;75.20
7998;DHT22;4044;49.814;7.828;2023-02-28T08:33:17;1.40;75.00
7998;DHT22;4044;49.814;7.828;2023-02-28T08:35:42;1.40;74.90
7998;DHT22;4044;49.814;7.828;2023-02-28T08:38:08;1.40;74.80
7998;DHT22;4044;49.814;7.828;2023-02-28T08:40:33;1.50;75.50
7998;DHT22;4044;49.814;7.828;2023-02-28T08:42:59;1.70;74.80
7998;DHT22;4044;49.814;7.828;2023-02-28T08:45:25;1.80;75.20
7998;DHT22;4044;49.814;7.828;2023-02-28T08:47:51;2.00;73.90
7998;DHT22;4044;49.814;7.828;2023-02-28T08:50:18;2.10;74.00
7998;DHT22;4044;49.814;7.828;2023-02-28T08:52:43;2.30;74.30
7998;DHT22;4044;49.814;7.828;2023-02-28T08:55:10;2.50;74.40
7998;DHT22;4044;49.814;7.828;2023-02-28T08:57:35;2.60;73.40
7998;DHT22;4044;49.814;7.828;2023-02-28T09:00:02;2.80;73.40
7998;DHT22;4044;49.814;7.828;2023-02-28T09:02:33;2.80;74.90
7998;DHT22;4044;49.814;7.828;2023-02-28T09:04:58;3.00;71.90
7998;DHT22;4044;49.814;7.828;2023-02-28T09:07:24;3.10;71.60
7998;DHT22;4044;49.814;7.828;2023-02-28T09:09:50;3.20;72.00
7998;DHT22;4044;49.814;7.828;2023-02-28T09:12:22;3.30;71.20
7998;DHT22;4044;49.814;7.828;2023-02-28T09:14:48;3.40;71.80
7998;DHT22;4044;49.814;7.828;2023-02-28T09:17:13;3.50;71.40
7998;DHT22;4044;49.814;7.828;2023-02-28T09:19:39;3.70;70.60
7998;DHT22;4044;49.814;7.828;2023-02-28T09:22:04;3.70;70.70
7998;DHT22;4044;49.814;7.828;2023-02-28T09:24:30;3.80;70.20
7998;DHT22;4044;49.814;7.828;2023-02-28T09:26:56;4.00;69.70
7998;DHT22;4044;49.814;7.828;2023-02-28T09:29:22;4.20;69.20
7998;DHT22;4044;49.814;7.828;2023-02-28T09:31:47;4.40;68.60
7998;DHT22;4044;49.814;7.828;2023-02-28T09:34:13;4.60;67.60
7998;DHT22;4044;49.814;7.828;2023-02-28T09:36:39;4.80;66.90
7998;DHT22;4044;49.814;7.828;2023-02-28T09:39:05;4.90;66.30
7998;DHT22;4044;49.814;7.828;2023-02-28T09:41:42;4.90;66.50
7998;DHT22;4044;49.814;7.828;2023-02-28T09:44:25;5.10;66.10
7998;DHT22;4044;49.814;7.828;2023-02-28T09:46:59;5.20;66.20
7998;DHT22;4044;49.814;7.828;2023-02-28T09:49:33;5.30;66.20
7998;DHT22;4044;49.814;7.828;2023-02-28T09:52:03;5.50;65.50
7998;DHT22;4044;49.814;7.828;2023-02-28T09:54:31;5.60;65.50
7998;DHT22;4044;49.814;7.828;2023-02-28T09:57:20;5.60;65.30
7998;DHT22;4044;49.814;7.828;2023-02-28T10:03:02;5.60;64.30
7998;DHT22;4044;49.814;7.828;2023-02-28T10:05:34;5.30;63.40
7998;DHT22;4044;49.814;7.828;2023-02-28T10:08:11;5.00;65.80
7998;DHT22;4044;49.814;7.828;2023-02-28T10:10:44;4.70;66.00
7998;DHT22;4044;49.814;7.828;2023-02-28T10:15:47;4.40;65.60
7998;DHT22;4044;49.814;7.828;2023-02-28T10:18:21;4.40;65.60
7998;DHT22;4044;49.814;7.828;2023-02-28T10:20:49;4.30;66.90
7998;DHT22;4044;49.814;7.828;2023-02-28T10:23:32;4.40;66.80
7998;DHT22;4044;49.814;7.828;2023-02-28T10:26:13;4.60;64.60
7998;DHT22;4044;49.814;7.828;2023-02-28T10:28:41;4.60;65.30
7998;DHT22;4044;49.814;7.828;2023-02-28T10:31:14;4.60;65.70
7998;DHT22;4044;49.814;7.828;2023-02-28T10:33:41;4.60;64.60
7998;DHT22;4044;49.814;7.828;2023-02-28T10:36:12;4.80;64.10
7998;DHT22;4044;49.814;7.828;2023-02-28T10:38:39;5.10;62.90
7998;DHT22;4044;49.814;7.828;2023-02-28T10:41:12;5.10;62.00
7998;DHT22;4044;49.814;7.828;2023-02-28T10:43:40;5.10;63.40
7998;DHT22;4044;49.814;7.828;2023-02-28T10:48:43;5.30;63.20
7998;DHT22;4044;49.814;7.828;2023-02-28T10:51:14;5.50;63.70
7998;DHT22;4044;49.814;7.828;2023-02-28T10:53:50;5.50;62.30
7998;DHT22;4044;49.814;7.828;2023-02-28T10:56:21;5.40;63.70
7998;DHT22;4044;49.814;7.828;2023-02-28T10:59:00;5.50;62.40
7998;DHT22;4044;49.814;7.828;2023-02-28T11:03:57;5.90;61.50
7998;DHT22;4044;49.814;7.828;2023-02-28T11:06:26;5.90;63.80
7998;DHT22;4044;49.814;7.828;2023-02-28T11:08:55;5.80;61.70
7998;DHT22;4044;49.814;7.828;2023-02-28T11:11:24;5.70;62.60
7998;DHT22;4044;49.814;7.828;2023-02-28T11:13:53;5.70;61.40
7998;DHT22;4044;49.814;7.828;2023-02-28T11:16:20;5.70;61.70
7998;DHT22;4044;49.814;7.828;2023-02-28T11:18:54;5.90;61.30
7998;DHT22;4044;49.814;7.828;2023-02-28T11:21:25;6.10;61.40
7998;DHT22;4044;49.814;7.828;2023-02-28T11:23:56;6.30;61.60
7998;DHT22;4044;49.814;7.828;2023-02-28T11:26:43;6.60;60.20
7998;DHT22;4044;49.814;7.828;2023-02-28T11:29:30;6.80;59.10
7998;DHT22;4044;49.814;7.828;2023-02-28T11:34:37;7.20;58.30
7998;DHT22;4044;49.814;7.828;2023-02-28T11:37:05;7.30;57.50
7998;DHT22;4044;49.814;7.828;2023-02-28T11:39:32;7.10;57.50
7998;DHT22;4044;49.814;7.828;2023-02-28T11:53:16;7.60;56.60
7998;DHT22;4044;49.814;7.828;2023-02-28T11:55:54;7.70;55.90
7998;DHT22;4044;49.814;7.828;2023-02-28T12:04:25;7.60;56.50
7998;DHT22;4044;49.814;7.828;2023-02-28T12:10:20;7.80;56.20
7998;DHT22;4044;49.814;7.828;2023-02-28T12:16:09;8.00;55.10
7998;DHT22;4044;49.814;7.828;2023-02-28T12:21:46;9.10;54.50
7998;DHT22;4044;49.814;7.828;2023-02-28T12:25:19;9.70;53.70
7998;DHT22;4044;49.814;7.828;2023-02-28T12:27:22;10.30;52.30
7998;DHT22;4044;49.814;7.828;2023-02-28T12:30:03;10.70;51.80
7998;DHT22;4044;49.814;7.828;2023-02-28T12:32:33;10.60;51.00
7998;DHT22;4044;49.814;7.828;2023-02-28T12:37:41;10.80;50.60
7998;DHT22;4044;49.814;7.828;2023-02-28T12:40:24;10.30;49.80
7998;DHT22;4044;49.814;7.828;2023-02-28T12:42:56;10.30;50.40
7998;DHT22;4044;49.814;7.828;2023-02-28T12:45:39;10.10;49.90
7998;DHT22;4044;49.814;7.828;2023-02-28T12:48:09;9.90;51.90
7998;DHT22;4044;49.814;7.828;2023-02-28T12:50:39;9.90;51.30
7998;DHT22;4044;49.814;7.828;2023-02-28T12:56:13;9.80;52.90
7998;DHT22;4044;49.814;7.828;2023-02-28T12:58:51;10.00;50.80
7998;DHT22;4044;49.814;7.828;2023-02-28T13:01:51;10.30;49.60
7998;DHT22;4044;49.814;7.828;2023-02-28T13:04:31;10.90;49.70
7998;DHT22;4044;49.814;7.828;2023-02-28T13:09:56;11.70;47.80
7998;DHT22;4044;49.814;7.828;2023-02-28T13:12:23;12.20;47.90
7998;DHT22;4044;49.814;7.828;2023-02-28T13:14:50;11.80;48.10
7998;DHT22;4044;49.814;7.828;2023-02-28T13:17:20;11.30;48.50
7998;DHT22;4044;49.814;7.828;2023-02-28T13:22:36;12.40;47.80
7998;DHT22;4044;49.814;7.828;2023-02-28T13:27:57;13.20;46.80
7998;DHT22;4044;49.814;7.828;2023-02-28T13:38:43;14.40;45.70
7998;DHT22;4044;49.814;7.828;2023-02-28T13:44:18;14.80;44.90
7998;DHT22;4044;49.814;7.828;2023-02-28T13:49:28;15.00;44.90
7998;DHT22;4044;49.814;7.828;2023-02-28T14:00:28;15.50;43.80
7998;DHT22;4044;49.814;7.828;2023-02-28T14:03:19;15.80;43.30
7998;DHT22;4044;49.814;7.828;2023-02-28T14:08:48;16.00;43.00
7998;DHT22;4044;49.814;7.828;2023-02-28T14:11:28;16.10;42.60
7998;DHT22;4044;49.814;7.828;2023-02-28T14:13:54;16.00;43.30
7998;DHT22;4044;49.814;7.828;2023-02-28T14:16:35;16.40;42.80
7998;DHT22;4044;49.814;7.828;2023-02-28T14:19:10;16.60;43.00
7998;DHT22;4044;49.814;7.828;2023-02-28T14:21:43;16.90;43.00
7998;DHT22;4044;49.814;7.828;2023-02-28T14:27:05;16.80;41.50
7998;DHT22;4044;49.814;7.828;2023-02-28T14:30:11;17.10;42.80
7998;DHT22;4044;49.814;7.828;2023-02-28T14:33:31;16.90;41.00
7998;DHT22;4044;49.814;7.828;2023-02-28T14:36:20;16.70;41.00
7998;DHT22;4044;49.814;7.828;2023-02-28T14:38:50;16.60;41.10
7998;DHT22;4044;49.814;7.828;2023-02-28T14:41:36;16.30;41.30
7998;DHT22;4044;49.814;7.828;2023-02-28T14:46:42;16.80;42.30
7998;DHT22;4044;49.814;7.828;2023-02-28T14:52:15;17.20;41.10
7998;DHT22;4044;49.814;7.828;2023-02-28T14:54:43;17.10;40.70
7998;DHT22;4044;49.814;7.828;2023-02-28T14:57:27;17.30;40.70
7998;DHT22;4044;49.814;7.828;2023-02-28T14:59:58;17.40;40.50
7998;DHT22;4044;49.814;7.828;2023-02-28T15:02:28;17.30;40.80
7998;DHT22;4044;49.814;7.828;2023-02-28T15:07:44;17.20;40.40
7998;DHT22;4044;49.814;7.828;2023-02-28T15:10:11;17.20;41.00
7998;DHT22;4044;49.814;7.828;2023-02-28T15:12:39;17.10;41.00
7998;DHT22;4044;49.814;7.828;2023-02-28T15:15:06;17.10;41.40
7998;DHT22;4044;49.814;7.828;2023-02-28T15:17:33;16.80;41.30
7998;DHT22;4044;49.814;7.828;2023-02-28T15:20:00;16.40;41.10
7998;DHT22;4044;49.814;7.828;2023-02-28T15:22:35;15.90;41.10
7998;DHT22;4044;49.814;7.828;2023-02-28T15:25:02;15.30;41.60
7998;DHT22;4044;49.814;7.828;2023-02-28T15:27:31;14.90;41.90
7998;DHT22;4044;49.814;7.828;2023-02-28T15:30:06;14.30;42.40
7998;DHT22;4044;49.814;7.828;2023-02-28T15:32:35;13.80;43.10
7998;DHT22;4044;49.814;7.828;2023-02-28T15:35:28;13.50;43.50
7998;DHT22;4044;49.814;7.828;2023-02-28T15:38:00;13.20;44.00
7998;DHT22;4044;49.814;7.828;2023-02-28T15:43:00;13.50;44.90
7998;DHT22;4044;49.814;7.828;2023-02-28T15:45:38;13.50;43.80
7998;DHT22;4044;49.814;7.828;2023-02-28T15:48:15;13.60;43.50
7998;DHT22;4044;49.814;7.828;2023-02-28T15:50:41;13.80;44.30
7998;DHT22;4044;49.814;7.828;2023-02-28T15:53:14;13.50;43.90
7998;DHT22;4044;49.814;7.828;2023-02-28T15:55:40;13.10;44.90
7998;DHT22;4044;49.814;7.828;2023-02-28T15:58:10;12.40;44.70
7998;DHT22;4044;49.814;7.828;2023-02-28T16:00:38;11.80;45.40
7998;DHT22;4044;49.814;7.828;2023-02-28T16:03:24;11.60;45.90
7998;DHT22;4044;49.814;7.828;2023-02-28T16:09:05;10.70;47.00
7998;DHT22;4044;49.814;7.828;2023-02-28T16:11:33;10.20;47.20
7998;DHT22;4044;49.814;7.828;2023-02-28T16:14:00;10.00;47.70
7998;DHT22;4044;49.814;7.828;2023-02-28T16:16:26;9.80;49.30
7998;DHT22;4044;49.814;7.828;2023-02-28T16:18:52;9.50;49.70
7998;DHT22;4044;49.814;7.828;2023-02-28T16:21:18;9.40;50.20
7998;DHT22;4044;49.814;7.828;2023-02-28T16:23:43;9.20;50.20
7998;DHT22;4044;49.814;7.828;2023-02-28T16:26:19;9.00;50.50
7998;DHT22;4044;49.814;7.828;2023-02-28T16:28:45;8.90;51.10
7998;DHT22;4044;49.814;7.828;2023-02-28T16:31:11;8.70;51.20
7998;DHT22;4044;49.814;7.828;2023-02-28T16:33:42;8.50;51.60
7998;DHT22;4044;49.814;7.828;2023-02-28T16:36:17;8.40;51.90
7998;DHT22;4044;49.814;7.828;2023-02-28T16:38:43;8.10;52.50
7998;DHT22;4044;49.814;7.828;2023-02-28T16:41:12;8.00;52.60
7998;DHT22;4044;49.814;7.828;2023-02-28T16:43:44;7.90;52.90
7998;DHT22;4044;49.814;7.828;2023-02-28T16:46:11;7.70;53.00
7998;DHT22;4044;49.814;7.828;2023-02-28T16:48:37;7.60;53.50
7998;DHT22;4044;49.814;7.828;2023-02-28T16:51:03;7.40;53.40
7998;DHT22;4044;49.814;7.828;2023-02-28T16:53:29;7.10;53.70
7998;DHT22;4044;49.814;7.828;2023-02-28T16:55:55;6.80;54.40
7998;DHT22;4044;49.814;7.828;2023-02-28T16:58:21;6.60;54.80
7998;DHT22;4044;49.814;7.828;2023-02-28T17:00:48;6.40;55.20
7998;DHT22;4044;49.814;7.828;2023-02-28T17:03:25;6.20;55.70
7998;DHT22;4044;49.814;7.828;2023-02-28T17:05:51;6.10;55.90
7998;DHT22;4044;49.814;7.828;2023-02-28T17:08:17;5.90;56.00
7998;DHT22;4044;49.814;7.828;2023-02-28T17:10:43;5.90;56.20
7998;DHT22;4044;49.814;7.828;2023-02-28T17:13:08;5.70;57.10
7998;DHT22;4044;49.814;7.828;2023-02-28T17:15:35;5.70;56.90
7998;DHT22;4044;49.814;7.828;2023-02-28T17:18:00;5.50;57.30
7998;DHT22;4044;49.814;7.828;2023-02-28T17:20:26;5.40;57.80
7998;DHT22;4044;49.814;7.828;2023-02-28T17:22:53;5.20;58.40
7998;DHT22;4044;49.814;7.828;2023-02-28T17:25:19;5.10;58.30
7998;DHT22;4044;49.814;7.828;2023-02-28T17:27:45;5.00;58.40
7998;DHT22;4044;49.814;7.828;2023-02-28T17:30:21;4.90;58.30
7998;DHT22;4044;49.814;7.828;2023-02-28T17:32:47;4.80;59.10
7998;DHT22;4044;49.814;7.828;2023-02-28T17:35:13;4.70;58.70
7998;DHT22;4044;49.814;7.828;2023-02-28T17:37:39;4.70;58.70
7998;DHT22;4044;49.814;7.828;2023-02-28T17:40:05;4.70;59.40
7998;DHT22;4044;49.814;7.828;2023-02-28T17:42:30;4.60;59.00
7998;DHT22;4044;49.814;7.828;2023-02-28T17:44:56;4.60;58.80
7998;DHT22;4044;49.814;7.828;2023-02-28T17:47:21;4.50;60.20
7998;DHT22;4044;49.814;7.828;2023-02-28T17:49:47;4.40;59.80
7998;DHT22;4044;49.814;7.828;2023-02-28T17:52:12;4.40;59.70
7998;DHT22;4044;49.814;7.828;2023-02-28T17:54:38;4.30;60.70
7998;DHT22;4044;49.814;7.828;2023-02-28T17:57:03;4.30;60.90
7998;DHT22;4044;49.814;7.828;2023-02-28T17:59:29;4.20;61.10
7998;DHT22;4044;49.814;7.828;2023-02-28T18:02:00;4.10;61.50
7998;DHT22;4044;49.814;7.828;2023-02-28T18:04:25;4.00;61.90
7998;DHT22;4044;49.814;7.828;2023-02-28T18:06:52;4.00;62.40
7998;DHT22;4044;49.814;7.828;2023-02-28T18:09:22;4.00;61.10
7998;DHT22;4044;49.814;7.828;2023-02-28T18:11:52;3.90;62.10
7998;DHT22;4044;49.814;7.828;2023-02-28T18:14:19;3.90;62.00
7998;DHT22;4044;49.814;7.828;2023-02-28T18:16:45;3.80;62.20
7998;DHT22;4044;49.814;7.828;2023-02-28T18:19:12;3.80;61.70
7998;DHT22;4044;49.814;7.828;2023-02-28T18:21:46;3.80;61.20
7998;DHT22;4044;49.814;7.828;2023-02-28T18:24:13;3.70;62.50
7998;DHT22;4044;49.814;7.828;2023-02-28T18:26:39;3.60;63.70
7998;DHT22;4044;49.814;7.828;2023-02-28T18:29:06;3.60;63.40
7998;DHT22;4044;49.814;7.828;2023-02-28T18:31:32;3.50;62.90
7998;DHT22;4044;49.814;7.828;2023-02-28T18:33:58;3.40;63.30